Portada
METAR-TAF:

METAR-TAF

Aeroports :

Sakon Nakhon, Tailàndia

latitud: 17-11-42N, longitud: 104-07-08E, altitud: 161 m

Observació

L'informe es va fer fa 1 hora i 10 minuts, a les 10:00 UTC
Vent 2 kt amb direcció variable
Temperatura 28°C
Humitat 45%
Pressió 1009 hPa
Visibilitat 10 km o més
sense núvols per sota de 1500 mi sense presència de cumulonimbus.

METAR: VTUI 231000Z VRB02KT CAVOK 28/15 Q1009 NOSIG

Hora: 18:10 (11:10 UTC)

Pronòstic

L'informe es va fer fa 6 hores i 10 minuts, a les 05:00 UTC
Pronòstic vàlid del 23 a les 06 UTC al 24 a les 06 UTC
Vent 6 kt del Est
Visibilitat 10 km o més
Escasses núvols a una alçada de 4000 ft

TAF: VTUI 230500Z 2306/2406 10006KT 9999 FEW040

Observacions i pronòstics meteorològics de més de 4000 aeroports (METAR i TAF).

Les estacions disponibles són els punts grocs i vermells al mapa.

Posi el ratolí al punt desitjat per veure el nom de l'estació.

Feu clic per veure les observacions i els pronòstics meteorològics.

Per canviar el mapa: feu clic els botons verds amb una creu de color negre per apropar; al botó verd amb un guió per allunyar la imatge; o en les fletxes verdes per a mapes adjacents.


METAR-TAF: